createdAt,value
2019-01-12T00:00:29.774Z,99185.31
2019-01-12T00:02:58.703Z,99185.31
2019-01-12T00:05:27.833Z,99198.38
2019-01-12T00:07:55.801Z,99198.61
2019-01-12T00:10:24.789Z,99200.03
2019-01-12T00:12:52.831Z,99199.48
2019-01-12T00:15:21.791Z,99199.48
2019-01-12T00:17:49.985Z,99199.71
2019-01-12T00:20:18.866Z,99200.80
2019-01-12T00:22:47.843Z,99200.80
2019-01-12T00:27:58.450Z,99192.31
2019-01-12T00:30:26.397Z,99196.48
2019-01-12T00:32:54.899Z,99194.29
2019-01-12T00:35:23.069Z,99195.88
2019-01-12T00:37:51.252Z,99195.88
2019-01-12T00:40:18.459Z,99198.00
2019-01-12T00:42:45.955Z,99197.75
2019-01-12T00:45:13.462Z,99205.17
2019-01-12T00:47:41.582Z,99207.59
2019-01-12T00:50:11.986Z,99204.38
2019-01-12T00:52:40.074Z,99200.11
2019-01-12T00:55:08.073Z,99194.52
2019-01-12T00:57:36.250Z,99199.84
2019-01-12T01:00:07.936Z,99200.17
2019-01-12T01:02:35.943Z,99198.77
2019-01-12T01:05:04.243Z,99203.59
2019-01-12T01:07:32.359Z,99205.70
2019-01-12T01:10:00.395Z,99210.43
2019-01-12T01:12:27.889Z,99215.74
2019-01-12T01:14:55.478Z,99215.47
2019-01-12T01:17:22.741Z,99211.49
2019-01-12T01:19:49.609Z,99210.88
2019-01-12T01:22:16.978Z,99214.16
2019-01-12T01:24:46.047Z,99213.59
2019-01-12T01:27:13.700Z,99223.42
2019-01-12T01:29:41.458Z,99224.75
2019-01-12T01:32:08.995Z,99227.72
2019-01-12T01:34:37.002Z,99230.92
2019-01-12T01:37:06.480Z,99230.14
2019-01-12T01:39:34.030Z,99235.15
2019-01-12T01:42:01.914Z,99236.50
2019-01-12T01:44:29.260Z,99226.31
2019-01-12T01:46:56.489Z,99226.31
2019-01-12T01:49:23.772Z,99231.70
2019-01-12T01:51:50.614Z,99228.75
2019-01-12T01:54:17.835Z,99231.89
2019-01-12T01:56:45.611Z,99230.55
2019-01-12T01:59:13.469Z,99230.28
2019-01-12T02:01:41.032Z,99233.81
2019-01-12T02:04:08.895Z,99234.80
2019-01-12T02:06:37.340Z,99216.34
2019-01-12T02:09:25.010Z,99216.34
2019-01-12T02:12:11.343Z,99227.59
2019-01-12T02:14:38.612Z,99232.70
2019-01-12T02:17:06.371Z,99233.52
2019-01-12T02:19:33.856Z,99233.20
2019-01-12T02:22:02.609Z,99232.38
2019-01-12T02:24:29.878Z,99232.38
2019-01-12T02:26:57.776Z,99226.19
2019-01-12T02:29:25.607Z,99226.19
2019-01-12T02:31:53.512Z,99227.50
2019-01-12T02:34:20.796Z,99223.28
2019-01-12T02:36:48.499Z,99220.37
2019-01-12T02:39:16.102Z,99225.11
2019-01-12T02:41:43.542Z,99224.86
2019-01-12T02:44:11.033Z,99223.17
2019-01-12T02:46:38.556Z,99221.35
2019-01-12T02:49:06.247Z,99217.68
2019-01-12T02:51:33.769Z,99215.03
2019-01-12T02:54:00.722Z,99212.62
2019-01-12T02:56:27.940Z,99208.34
2019-01-12T02:58:55.444Z,99208.08
2019-01-12T03:01:23.100Z,99214.17
2019-01-12T03:03:51.458Z,99210.99
2019-01-12T03:06:19.442Z,99203.19
2019-01-12T03:08:46.766Z,99204.62
2019-01-12T03:11:13.856Z,99208.10
2019-01-12T03:13:41.494Z,99205.23
2019-01-12T03:16:08.855Z,99205.23
2019-01-12T03:18:36.427Z,99200.25
2019-01-12T03:21:03.873Z,99200.25
2019-01-12T03:23:31.335Z,99169.72
2019-01-12T03:25:58.616Z,99169.72
2019-01-12T03:28:25.881Z,99196.46
2019-01-12T03:30:53.507Z,99196.50
2019-01-12T03:33:20.950Z,99194.09
2019-01-12T03:35:48.254Z,99193.86
2019-01-12T03:38:15.702Z,99191.99
2019-01-12T03:40:43.517Z,99189.92
2019-01-12T03:43:11.267Z,99189.55
2019-01-12T03:45:38.493Z,99188.75
2019-01-12T03:48:06.274Z,99186.59
2019-01-12T03:50:33.849Z,99191.64
2019-01-12T03:53:01.268Z,99182.09
2019-01-12T03:55:29.342Z,99182.09
2019-01-12T03:57:56.614Z,99185.55
2019-01-12T04:00:24.558Z,99180.42
2019-01-12T04:02:51.813Z,99186.54
2019-01-12T04:05:19.177Z,99190.30
2019-01-12T04:07:46.437Z,99190.09
2019-01-12T04:10:13.830Z,99196.13
2019-01-12T04:12:41.468Z,99190.31
2019-01-12T04:15:10.256Z,99188.41
2019-01-12T04:20:08.440Z,99174.89
2019-01-12T04:22:35.746Z,99182.55
2019-01-12T04:25:02.879Z,99182.07
2019-01-12T04:27:30.505Z,99179.91
2019-01-12T04:29:57.917Z,99186.05
2019-01-12T04:32:25.357Z,99183.42
2019-01-12T04:34:52.727Z,99183.92
2019-01-12T04:37:20.023Z,99183.06
2019-01-12T04:39:47.589Z,99186.77
2019-01-12T04:42:14.865Z,99178.77
2019-01-12T04:44:42.493Z,99183.06
2019-01-12T04:47:09.893Z,99182.71
2019-01-12T04:49:37.516Z,99179.31
2019-01-12T04:52:04.805Z,99177.22
2019-01-12T04:54:32.355Z,99183.02
2019-01-12T04:57:00.436Z,99185.19
2019-01-12T04:59:28.424Z,99178.20
2019-01-12T05:01:56.412Z,99176.38
2019-01-12T05:04:24.440Z,99176.11
2019-01-12T05:06:52.069Z,99177.14
2019-01-12T05:09:19.403Z,99176.11
2019-01-12T05:11:47.109Z,99173.73
2019-01-12T05:14:14.407Z,99172.11
2019-01-12T05:16:41.706Z,99177.44
2019-01-12T05:19:08.931Z,99179.28
2019-01-12T05:21:36.495Z,99175.02
2019-01-12T05:24:03.778Z,99180.59
2019-01-12T05:26:30.748Z,99169.96
2019-01-12T05:28:57.755Z,99140.00
2019-01-12T05:31:24.618Z,99172.73
2019-01-12T05:33:51.907Z,99175.27
2019-01-12T05:36:19.256Z,99157.81
2019-01-12T05:38:46.513Z,99157.81
2019-01-12T05:41:14.100Z,99172.30
2019-01-12T05:43:41.409Z,99168.85
2019-01-12T05:46:09.129Z,99173.36
2019-01-12T05:48:36.415Z,99176.05
2019-01-12T05:51:03.826Z,99176.87
2019-01-12T05:53:31.117Z,99176.89
2019-01-12T05:55:59.294Z,99179.28
2019-01-12T05:58:27.016Z,99175.02
2019-01-12T06:00:54.720Z,99177.44
2019-01-12T06:03:21.630Z,99178.80
2019-01-12T06:05:49.367Z,99183.80
2019-01-12T06:08:16.609Z,99178.06
2019-01-12T06:10:44.425Z,99173.55
2019-01-12T06:13:11.725Z,99177.61
2019-01-12T06:15:38.996Z,99180.73
2019-01-12T06:18:06.260Z,99188.59
2019-01-12T06:20:33.637Z,99180.02
2019-01-12T06:23:00.990Z,99174.89
2019-01-12T06:25:28.259Z,99179.27
2019-01-12T06:27:55.503Z,99180.21
2019-01-12T06:30:22.781Z,99178.96
2019-01-12T06:32:49.680Z,99180.27
2019-01-12T06:35:17.340Z,99181.09
2019-01-12T06:37:44.861Z,99180.86
2019-01-12T06:40:15.392Z,99183.64
2019-01-12T06:42:42.636Z,99171.89
2019-01-12T06:45:11.785Z,99183.45
2019-01-12T06:47:39.709Z,99183.75
2019-01-12T06:50:09.033Z,99189.78
2019-01-12T06:52:36.738Z,99186.95
2019-01-12T06:55:04.256Z,99184.45
2019-01-12T06:57:31.804Z,99182.88
2019-01-12T06:59:59.504Z,99185.95
2019-01-12T07:02:27.246Z,99185.14
2019-01-12T07:04:54.873Z,99194.24
2019-01-12T07:07:22.258Z,99194.78
2019-01-12T07:09:49.999Z,99194.78
2019-01-12T07:12:17.396Z,99196.42
2019-01-12T07:14:44.900Z,99196.42
2019-01-12T07:17:12.555Z,99197.17
2019-01-12T07:19:39.790Z,99197.17
2019-01-12T07:22:06.700Z,99197.94
2019-01-12T07:24:34.053Z,99199.57
2019-01-12T07:27:01.506Z,99193.13
2019-01-12T07:29:28.878Z,99191.52
2019-01-12T07:31:56.800Z,99195.33
2019-01-12T07:34:25.057Z,99195.33
2019-01-12T07:36:52.517Z,99207.51
2019-01-12T07:39:20.578Z,99212.08
2019-01-12T07:41:48.038Z,99216.09
2019-01-12T07:44:15.907Z,99211.83
2019-01-12T07:46:43.833Z,99206.45
2019-01-12T07:49:11.435Z,99206.45
2019-01-12T07:51:38.688Z,99228.30
2019-01-12T07:54:06.258Z,99219.82
2019-01-12T07:56:33.807Z,99227.05
2019-01-12T07:59:01.572Z,99228.88
2019-01-12T08:01:28.832Z,99222.75
2019-01-12T08:03:56.444Z,99231.05
2019-01-12T08:06:23.753Z,99229.98
2019-01-12T08:08:50.804Z,99224.93
2019-01-12T08:11:17.605Z,99230.26
2019-01-12T08:13:44.957Z,99224.69
2019-01-12T08:16:12.252Z,99229.23
2019-01-12T08:18:39.793Z,99225.50
2019-01-12T08:21:07.036Z,99223.71
2019-01-12T08:23:35.244Z,99218.92
2019-01-12T08:26:03.072Z,99218.92
2019-01-12T08:28:30.792Z,99226.38
2019-01-12T08:30:57.697Z,99226.63
2019-01-12T08:33:24.606Z,99226.27
2019-01-12T08:35:51.877Z,99227.89
2019-01-12T08:38:19.248Z,99220.69
2019-01-12T08:40:47.560Z,99220.69
2019-01-12T08:43:15.249Z,99218.38
2019-01-12T08:45:42.483Z,99221.89
2019-01-12T08:48:10.075Z,99219.50
2019-01-12T08:50:37.387Z,99221.09
2019-01-12T08:53:04.870Z,99226.51
2019-01-12T08:55:32.249Z,99208.19
2019-01-12T08:58:00.435Z,99208.19
2019-01-12T09:00:27.973Z,99232.08
2019-01-12T09:02:55.659Z,99223.63
2019-01-12T09:05:23.330Z,99223.84
2019-01-12T09:07:50.610Z,99224.38
2019-01-12T09:10:20.498Z,99217.23
2019-01-12T09:12:48.448Z,99216.96
2019-01-12T09:15:15.839Z,99213.45
2019-01-12T09:17:44.244Z,99218.02
2019-01-12T09:20:12.242Z,99218.52
2019-01-12T09:22:40.242Z,99215.63
2019-01-12T09:25:08.708Z,99218.38
2019-01-12T09:27:35.610Z,99214.87
2019-01-12T09:30:05.248Z,99214.02
2019-01-12T09:32:32.491Z,99206.30
2019-01-12T09:34:59.775Z,99210.87
2019-01-12T09:37:26.695Z,99208.20
2019-01-12T09:39:53.596Z,99212.73
2019-01-12T09:42:21.030Z,99217.04
2019-01-12T09:44:48.523Z,99219.11
2019-01-12T09:47:15.846Z,99212.47
2019-01-12T09:49:43.242Z,99211.61
2019-01-12T09:52:11.491Z,99217.80
2019-01-12T09:54:38.781Z,99215.41
2019-01-12T09:57:05.677Z,99209.05
2019-01-12T09:59:32.980Z,99205.05
2019-01-12T10:02:00.342Z,99204.75
2019-01-12T10:04:28.418Z,99206.92
2019-01-12T10:06:56.828Z,99204.58
2019-01-12T10:09:24.269Z,99199.27
2019-01-12T10:11:51.785Z,99196.64
2019-01-12T10:14:19.430Z,99198.77
2019-01-12T10:16:46.942Z,99192.37
2019-01-12T10:19:16.318Z,99176.16
2019-01-12T10:21:45.807Z,99177.60
2019-01-12T10:24:14.093Z,99177.60
2019-01-12T10:26:41.840Z,99161.34
2019-01-12T10:29:11.592Z,99161.34
2019-01-12T10:31:41.057Z,99170.54
2019-01-12T10:34:09.783Z,99155.97
2019-01-12T10:36:40.794Z,99155.97
2019-01-12T10:41:39.655Z,99147.97
2019-01-12T10:46:40.964Z,99141.48
2019-01-12T10:49:08.757Z,99140.39
2019-01-12T10:51:36.675Z,99140.39
2019-01-12T10:54:05.040Z,99144.03
2019-01-12T10:56:33.689Z,99122.00
2019-01-12T10:59:01.522Z,99122.00
2019-01-12T11:01:29.799Z,99129.14
2019-01-12T11:03:57.688Z,99116.97
2019-01-12T11:06:27.598Z,99108.87
2019-01-12T11:08:55.836Z,99093.63
2019-01-12T11:11:24.590Z,99094.27
2019-01-12T11:13:52.339Z,99082.75
2019-01-12T11:18:48.684Z,99071.31
2019-01-12T11:22:09.860Z,99065.92
2019-01-12T11:24:37.241Z,99077.67
2019-01-12T11:27:04.903Z,99077.67
2019-01-12T11:29:33.548Z,99077.41
2019-01-12T11:32:00.872Z,99077.41
2019-01-12T11:34:28.456Z,99081.16
2019-01-12T11:36:55.764Z,99081.16
2019-01-12T11:39:23.240Z,99078.64
2019-01-12T11:41:50.755Z,99078.50
2019-01-12T11:44:19.786Z,99067.61
2019-01-12T11:46:47.231Z,99052.38
2019-01-12T11:49:15.023Z,99049.70
2019-01-12T11:51:42.989Z,99050.20
2019-01-12T11:54:10.800Z,99049.70
2019-01-12T11:56:38.783Z,99040.94
2019-01-12T11:59:06.239Z,99027.02
2019-01-12T12:01:33.854Z,99017.42
2019-01-12T12:04:01.926Z,99004.84
2019-01-12T12:06:29.484Z,99004.84
2019-01-12T12:08:58.036Z,98993.44
2019-01-12T12:11:25.692Z,98992.09
2019-01-12T12:13:52.734Z,98984.39
2019-01-12T12:16:20.430Z,98982.47
2019-01-12T12:18:48.752Z,98957.66
2019-01-12T12:21:15.813Z,98966.99
2019-01-12T12:23:43.754Z,98972.59
2019-01-12T12:26:12.428Z,98966.73
2019-01-12T12:28:39.753Z,98971.30
2019-01-12T12:31:06.974Z,98961.44
2019-01-12T12:33:34.615Z,98965.11
2019-01-12T12:36:02.430Z,98958.17
2019-01-12T12:38:29.828Z,98963.22
2019-01-12T12:40:57.102Z,98962.41
2019-01-12T12:43:24.441Z,98959.22
2019-01-12T12:45:51.717Z,98948.02
2019-01-12T12:48:19.109Z,98954.39
2019-01-12T12:50:46.414Z,98951.72
2019-01-12T12:53:13.721Z,98947.80
2019-01-12T12:55:41.034Z,98945.67
2019-01-12T12:58:08.526Z,98948.58
2019-01-12T13:00:35.843Z,98936.59
2019-01-12T13:03:03.747Z,98941.23
2019-01-12T13:05:31.240Z,98933.22
2019-01-12T13:07:59.064Z,98931.59
2019-01-12T13:10:29.246Z,98926.78
2019-01-12T13:12:56.942Z,98936.94
2019-01-12T13:15:24.371Z,98938.19
2019-01-12T13:17:51.797Z,98933.95
2019-01-12T13:20:20.951Z,98940.86
2019-01-12T13:22:49.467Z,98939.78
2019-01-12T13:25:17.420Z,98934.18
2019-01-12T13:27:44.916Z,98931.25
2019-01-12T13:30:19.013Z,98923.80
2019-01-12T13:32:47.393Z,98921.72
2019-01-12T13:35:14.704Z,98923.88
2019-01-12T13:37:41.598Z,98918.77
2019-01-12T13:40:10.859Z,98917.20
2019-01-12T13:42:39.021Z,98917.98
2019-01-12T13:45:08.512Z,98917.98
2019-01-12T13:47:36.024Z,98913.95
2019-01-12T13:52:43.686Z,98893.13
2019-01-12T13:55:12.396Z,98891.00
2019-01-12T13:57:47.340Z,98888.84
2019-01-12T14:00:36.465Z,98876.52
2019-01-12T14:03:05.966Z,98876.52
2019-01-12T14:05:33.492Z,98881.34
2019-01-12T14:08:00.830Z,98873.06
2019-01-12T14:10:28.240Z,98851.97
2019-01-12T14:12:55.786Z,98851.97
2019-01-12T14:15:23.476Z,98844.73
2019-01-12T14:17:51.481Z,98828.73
2019-01-12T14:20:25.830Z,98832.45
2019-01-12T14:22:53.775Z,98812.70
2019-01-12T14:25:20.921Z,98812.70
2019-01-12T14:27:54.339Z,98831.43
2019-01-12T14:30:53.108Z,98826.64
2019-01-12T14:33:20.999Z,98823.66
2019-01-12T14:35:48.877Z,98821.30
2019-01-12T14:38:16.742Z,98815.95
2019-01-12T14:40:44.239Z,98815.95
2019-01-12T14:43:12.112Z,98807.67
2019-01-12T14:45:39.776Z,98800.47
2019-01-12T14:48:07.405Z,98790.86
2019-01-12T14:50:34.886Z,98791.66
2019-01-12T14:53:02.761Z,98789.53
2019-01-12T14:55:30.244Z,98782.85
2019-01-12T14:58:01.970Z,98777.49
2019-01-12T15:00:28.458Z,98774.83
2019-01-12T15:02:55.861Z,98773.23
2019-01-12T15:05:26.851Z,98759.34
2019-01-12T15:07:54.436Z,98751.87
2019-01-12T15:10:21.738Z,98759.84
2019-01-12T15:12:49.453Z,98760.66
2019-01-12T15:17:13.978Z,98748.91
2019-01-12T15:19:41.939Z,98752.64
2019-01-12T15:22:09.725Z,98751.55
2019-01-12T15:24:37.242Z,98753.44
2019-01-12T15:27:04.874Z,98754.78
2019-01-12T15:29:32.397Z,98730.21
2019-01-12T15:32:00.910Z,98730.21
2019-01-12T15:34:28.449Z,98751.30
2019-01-12T15:36:55.790Z,98743.02
2019-01-12T15:39:23.454Z,98745.16
2019-01-12T15:41:50.706Z,98747.02
2019-01-12T15:44:17.875Z,98741.42
2019-01-12T15:46:45.440Z,98724.08
2019-01-12T15:49:12.686Z,98724.08
2019-01-12T15:51:39.607Z,98735.00
2019-01-12T15:54:07.026Z,98721.94
2019-01-12T15:56:34.723Z,98716.84
2019-01-12T15:59:01.605Z,98712.59
2019-01-12T16:01:28.883Z,98705.39
2019-01-12T16:03:56.242Z,98680.83
2019-01-12T16:06:23.804Z,98680.83
2019-01-12T16:08:51.888Z,98700.30
2019-01-12T16:11:20.244Z,98706.73
2019-01-12T16:13:47.762Z,98704.05
2019-01-12T16:16:14.708Z,98696.84
2019-01-12T16:18:41.869Z,98688.83
2019-01-12T16:21:09.463Z,98673.61
2019-01-12T16:23:37.248Z,98673.61
2019-01-12T16:26:04.563Z,98671.48
2019-01-12T16:28:31.979Z,98663.48
2019-01-12T16:30:59.608Z,98666.42
2019-01-12T16:33:26.863Z,98660.27
2019-01-12T16:35:54.510Z,98627.99
2019-01-12T16:38:22.247Z,98627.99
2019-01-12T16:40:50.448Z,98627.18
2019-01-12T16:43:17.885Z,98628.80
2019-01-12T16:45:45.247Z,98611.72
2019-01-12T16:48:13.012Z,98611.72
2019-01-12T16:50:40.778Z,98610.64
2019-01-12T16:53:07.703Z,98608.79
2019-01-12T16:55:34.596Z,98606.37
2019-01-12T16:58:02.538Z,98614.11
2019-01-12T17:00:30.495Z,98609.32
2019-01-12T17:02:59.016Z,98616.52
2019-01-12T17:05:26.392Z,98610.64
2019-01-12T17:07:53.740Z,98614.65
2019-01-12T17:11:28.742Z,98612.52
2019-01-12T17:13:55.984Z,98613.06
2019-01-12T17:16:25.333Z,98599.98
2019-01-12T17:18:52.781Z,98597.05
2019-01-12T17:21:20.107Z,98603.17
2019-01-12T17:23:47.860Z,98596.23
2019-01-12T17:26:15.357Z,98587.17
2019-01-12T17:28:43.436Z,98587.17
2019-01-12T17:31:10.786Z,98587.72
2019-01-12T17:33:38.397Z,98585.03
2019-01-12T17:36:06.251Z,98590.11
2019-01-12T17:38:34.454Z,98591.42
2019-01-12T17:41:02.874Z,98588.25
2019-01-12T17:43:30.859Z,98555.72
2019-01-12T17:46:19.818Z,98578.61
2019-01-12T17:49:27.855Z,98580.49
2019-01-12T17:51:58.448Z,98570.63
2019-01-12T17:54:28.330Z,98570.63
2019-01-12T17:56:56.796Z,98576.77
2019-01-12T17:59:24.682Z,98572.76
2019-01-12T18:01:53.958Z,98573.56
2019-01-12T18:04:21.781Z,98565.00
2019-01-12T18:06:49.959Z,98565.00
2019-01-12T18:09:18.686Z,98557.57
2019-01-12T18:11:47.021Z,98557.57
2019-01-12T18:14:15.679Z,98554.61
2019-01-12T18:16:43.822Z,98554.61
2019-01-12T18:19:11.767Z,98544.75
2019-01-12T18:21:39.807Z,98540.20
2019-01-12T18:24:07.829Z,98547.41
2019-01-12T18:26:35.677Z,98537.27
2019-01-12T18:29:03.848Z,98538.08
2019-01-12T18:31:31.681Z,98537.27
2019-01-12T18:33:59.359Z,98539.45
2019-01-12T18:36:28.597Z,98533.31
2019-01-12T18:38:56.831Z,98531.69
2019-01-12T18:41:24.789Z,98518.34
2019-01-12T18:43:53.763Z,98514.06
2019-01-12T18:46:21.804Z,98519.42
2019-01-12T18:48:49.764Z,98518.61
2019-01-12T18:51:17.836Z,98513.55
2019-01-12T18:53:45.721Z,98506.08
2019-01-12T18:56:13.749Z,98521.83
2019-01-12T18:58:41.762Z,98517.55
2019-01-12T19:01:09.771Z,98509.29
2019-01-12T19:03:37.676Z,98509.29
2019-01-12T19:06:06.072Z,98510.08
2019-01-12T19:08:34.710Z,98507.97
2019-01-12T19:11:02.364Z,98506.36
2019-01-12T19:13:30.703Z,98505.57
2019-01-12T19:15:58.567Z,98503.41
2019-01-12T19:18:26.806Z,98493.28
2019-01-12T19:20:54.764Z,98490.62
2019-01-12T19:23:22.740Z,98491.95
2019-01-12T19:25:51.276Z,98492.23
2019-01-12T19:28:19.664Z,98493.02
2019-01-12T19:30:47.366Z,98481.28
2019-01-12T19:33:16.733Z,98484.22
2019-01-12T19:35:44.751Z,98475.16
2019-01-12T19:38:12.747Z,98477.29
2019-01-12T19:40:41.370Z,98480.73
2019-01-12T19:43:09.845Z,98475.69
2019-01-12T19:45:37.807Z,98458.06
2019-01-12T19:48:05.336Z,98458.06
2019-01-12T19:50:33.951Z,98455.40
2019-01-12T19:53:01.717Z,98424.21
2019-01-12T19:55:29.604Z,98424.21
2019-01-12T19:57:58.685Z,98427.66
2019-01-12T20:00:32.685Z,98425.01
2019-01-12T20:03:00.765Z,98423.39
2019-01-12T20:05:28.700Z,98409.25
2019-01-12T20:07:57.062Z,98406.31
2019-01-12T20:10:26.303Z,98399.88
2019-01-12T20:12:54.986Z,98399.88
2019-01-12T20:15:25.072Z,98371.91
2019-01-12T20:17:53.776Z,98397.46
2019-01-12T20:20:21.677Z,98397.46
2019-01-12T20:22:50.424Z,98397.50
2019-01-12T20:25:27.945Z,98390.28
2019-01-12T20:27:57.349Z,98388.47
2019-01-12T20:30:56.095Z,98388.47
2019-01-12T20:33:46.391Z,98385.48
2019-01-12T20:37:36.110Z,98385.48
2019-01-12T20:40:26.814Z,98405.83
2019-01-12T20:43:40.840Z,98365.03
2019-01-12T20:46:42.765Z,98365.03
2019-01-12T20:49:14.842Z,98398.55
2019-01-12T20:52:05.332Z,98395.59
2019-01-12T20:57:07.245Z,98400.91
2019-01-12T21:00:31.027Z,98397.75
2019-01-12T21:03:40.949Z,98403.08
2019-01-12T21:06:37.075Z,98399.63
2019-01-12T21:10:07.934Z,98392.45
2019-01-12T21:13:40.558Z,98391.14
2019-01-12T21:16:15.818Z,98391.14
2019-01-12T21:18:43.689Z,98384.20
2019-01-12T21:21:11.683Z,98352.20
2019-01-12T21:23:41.548Z,98379.66
2019-01-12T21:26:10.753Z,98379.66
2019-01-12T21:28:38.805Z,98380.44
2019-01-12T21:31:06.789Z,98371.89
2019-01-12T21:35:23.241Z,98366.32
2019-01-12T21:37:52.048Z,98370.07
2019-01-12T21:40:19.694Z,98375.14
2019-01-12T21:42:46.700Z,98365.53
2019-01-12T21:45:13.611Z,98358.05
2019-01-12T21:47:40.894Z,98364.99
2019-01-12T21:50:11.744Z,98355.36
2019-01-12T21:52:40.025Z,98355.36
2019-01-12T21:55:09.742Z,98332.20
2019-01-12T21:57:37.578Z,98332.20
2019-01-12T22:00:11.364Z,98354.53
2019-01-12T22:02:40.034Z,98354.53
2019-01-12T22:05:09.765Z,98353.48
2019-01-12T22:07:37.761Z,98353.48
2019-01-12T22:10:06.356Z,98357.80
2019-01-12T22:12:35.051Z,98350.61
2019-01-12T22:15:03.829Z,98339.09
2019-01-12T22:17:32.144Z,98339.09
2019-01-12T22:20:01.343Z,98338.80
2019-01-12T22:22:29.923Z,98343.10
2019-01-12T22:24:58.639Z,98331.92
2019-01-12T22:27:28.853Z,98331.92
2019-01-12T22:29:57.592Z,98318.39
2019-01-12T22:35:15.735Z,98333.23
2019-01-12T22:37:42.707Z,98336.46
2019-01-12T22:40:15.425Z,98335.89
2019-01-12T22:42:43.399Z,98335.35
2019-01-12T22:45:11.529Z,98335.14
2019-01-12T22:47:39.074Z,98330.85
2019-01-12T22:50:09.967Z,98333.51
2019-01-12T22:52:38.639Z,98318.39
2019-01-12T22:55:08.794Z,98318.39
2019-01-12T22:57:37.846Z,98313.81
2019-01-12T23:00:31.753Z,98314.37
2019-01-12T23:03:00.015Z,98314.37
2019-01-12T23:05:28.794Z,98300.58
2019-01-12T23:07:56.795Z,98293.10
2019-01-12T23:10:24.494Z,98293.10
2019-01-12T23:12:52.731Z,98313.62
2019-01-12T23:15:21.715Z,98321.08
2019-01-12T23:17:49.807Z,98316.29
2019-01-12T23:20:17.508Z,98311.77
2019-01-12T23:22:46.046Z,98311.77
2019-01-12T23:25:14.714Z,98306.95
2019-01-12T23:27:43.591Z,98303.28
2019-01-12T23:30:12.104Z,98303.28
2019-01-12T23:32:40.696Z,98309.11
2019-01-12T23:35:09.050Z,98304.53
2019-01-12T23:37:37.723Z,98285.64
2019-01-12T23:40:05.601Z,98285.64
2019-01-12T23:42:34.348Z,98303.47
2019-01-12T23:46:26.903Z,98306.67
2019-01-12T23:48:56.011Z,98291.23
2019-01-12T23:51:23.513Z,98291.23
2019-01-12T23:53:50.972Z,98281.09
2019-01-12T23:56:18.607Z,98277.11
2019-01-12T23:58:46.242Z,98277.11
